sensor_id;sensor_type;location;lat;lon;timestamp;P1;durP1;ratioP1;P2;durP2;ratioP2
53642;SDS011;39546;45.534;12.048;2023-09-30T00:01:41;8.38;;;5.68;;
53642;SDS011;39546;45.534;12.048;2023-09-30T00:07:45;8.45;;;5.20;;
53642;SDS011;39546;45.534;12.048;2023-09-30T00:13:48;5.03;;;3.70;;
53642;SDS011;39546;45.534;12.048;2023-09-30T00:19:50;9.02;;;6.10;;
53642;SDS011;39546;45.534;12.048;2023-09-30T00:25:52;8.57;;;6.12;;
53642;SDS011;39546;45.534;12.048;2023-09-30T00:31:54;9.25;;;6.25;;
53642;SDS011;39546;45.534;12.048;2023-09-30T00:37:57;16.90;;;7.43;;
53642;SDS011;39546;45.534;12.048;2023-09-30T00:43:59;8.05;;;5.32;;
53642;SDS011;39546;45.534;12.048;2023-09-30T00:50:01;8.77;;;5.55;;
53642;SDS011;39546;45.534;12.048;2023-09-30T00:56:05;7.05;;;5.55;;
53642;SDS011;39546;45.534;12.048;2023-09-30T01:02:07;19.70;;;6.80;;
53642;SDS011;39546;45.534;12.048;2023-09-30T01:08:09;13.43;;;5.45;;
53642;SDS011;39546;45.534;12.048;2023-09-30T01:14:27;12.32;;;6.03;;
53642;SDS011;39546;45.534;12.048;2023-09-30T01:26:33;7.95;;;5.35;;
53642;SDS011;39546;45.534;12.048;2023-09-30T01:32:35;9.23;;;6.93;;
53642;SDS011;39546;45.534;12.048;2023-09-30T01:38:37;6.28;;;4.60;;
53642;SDS011;39546;45.534;12.048;2023-09-30T01:44:39;9.48;;;6.50;;
53642;SDS011;39546;45.534;12.048;2023-09-30T01:50:42;7.37;;;5.03;;
53642;SDS011;39546;45.534;12.048;2023-09-30T01:56:44;9.75;;;6.80;;
53642;SDS011;39546;45.534;12.048;2023-09-30T02:02:46;10.30;;;5.57;;
53642;SDS011;39546;45.534;12.048;2023-09-30T02:08:48;8.50;;;6.10;;
53642;SDS011;39546;45.534;12.048;2023-09-30T02:14:50;7.90;;;4.65;;
53642;SDS011;39546;45.534;12.048;2023-09-30T02:20:52;6.57;;;5.20;;
53642;SDS011;39546;45.534;12.048;2023-09-30T02:26:54;12.13;;;6.03;;
53642;SDS011;39546;45.534;12.048;2023-09-30T02:32:57;5.15;;;3.70;;
53642;SDS011;39546;45.534;12.048;2023-09-30T02:39:00;9.25;;;6.53;;
53642;SDS011;39546;45.534;12.048;2023-09-30T02:45:03;8.35;;;5.80;;
53642;SDS011;39546;45.534;12.048;2023-09-30T02:51:10;7.47;;;5.28;;
53642;SDS011;39546;45.534;12.048;2023-09-30T02:57:13;6.85;;;5.45;;
53642;SDS011;39546;45.534;12.048;2023-09-30T03:03:15;8.55;;;5.82;;
53642;SDS011;39546;45.534;12.048;2023-09-30T03:09:17;6.62;;;5.50;;
53642;SDS011;39546;45.534;12.048;2023-09-30T03:15:19;6.97;;;5.22;;
53642;SDS011;39546;45.534;12.048;2023-09-30T03:21:22;7.62;;;4.80;;
53642;SDS011;39546;45.534;12.048;2023-09-30T03:27:24;6.70;;;5.25;;
53642;SDS011;39546;45.534;12.048;2023-09-30T03:33:26;8.40;;;5.43;;
53642;SDS011;39546;45.534;12.048;2023-09-30T03:39:29;9.43;;;4.87;;
53642;SDS011;39546;45.534;12.048;2023-09-30T03:45:31;9.32;;;6.05;;
53642;SDS011;39546;45.534;12.048;2023-09-30T03:51:34;6.30;;;5.15;;
53642;SDS011;39546;45.534;12.048;2023-09-30T03:57:38;8.32;;;5.90;;
53642;SDS011;39546;45.534;12.048;2023-09-30T04:03:40;6.45;;;4.28;;
53642;SDS011;39546;45.534;12.048;2023-09-30T04:09:44;7.80;;;5.00;;
53642;SDS011;39546;45.534;12.048;2023-09-30T04:15:47;9.13;;;6.72;;
53642;SDS011;39546;45.534;12.048;2023-09-30T04:21:50;8.73;;;6.80;;
53642;SDS011;39546;45.534;12.048;2023-09-30T04:27:53;12.05;;;7.15;;
53642;SDS011;39546;45.534;12.048;2023-09-30T04:33:55;9.48;;;6.12;;
53642;SDS011;39546;45.534;12.048;2023-09-30T04:39:59;8.13;;;6.10;;
53642;SDS011;39546;45.534;12.048;2023-09-30T04:46:01;10.85;;;8.07;;
53642;SDS011;39546;45.534;12.048;2023-09-30T04:52:03;10.05;;;7.78;;
53642;SDS011;39546;45.534;12.048;2023-09-30T04:58:08;8.18;;;6.00;;
53642;SDS011;39546;45.534;12.048;2023-09-30T05:04:10;9.25;;;7.62;;
53642;SDS011;39546;45.534;12.048;2023-09-30T05:10:13;8.50;;;6.32;;
53642;SDS011;39546;45.534;12.048;2023-09-30T05:16:17;9.98;;;6.32;;
53642;SDS011;39546;45.534;12.048;2023-09-30T05:22:20;10.63;;;7.03;;
53642;SDS011;39546;45.534;12.048;2023-09-30T05:28:25;11.77;;;8.00;;
53642;SDS011;39546;45.534;12.048;2023-09-30T05:34:28;9.85;;;8.25;;
53642;SDS011;39546;45.534;12.048;2023-09-30T05:40:30;8.10;;;6.40;;
53642;SDS011;39546;45.534;12.048;2023-09-30T05:46:32;8.88;;;7.00;;
53642;SDS011;39546;45.534;12.048;2023-09-30T05:52:35;10.23;;;7.05;;
53642;SDS011;39546;45.534;12.048;2023-09-30T05:58:38;9.85;;;7.00;;
53642;SDS011;39546;45.534;12.048;2023-09-30T06:04:42;8.05;;;6.25;;
53642;SDS011;39546;45.534;12.048;2023-09-30T06:10:44;9.80;;;7.32;;
53642;SDS011;39546;45.534;12.048;2023-09-30T06:16:47;12.02;;;7.55;;
53642;SDS011;39546;45.534;12.048;2023-09-30T06:23:01;8.55;;;7.65;;
53642;SDS011;39546;45.534;12.048;2023-09-30T06:29:03;9.27;;;7.37;;
53642;SDS011;39546;45.534;12.048;2023-09-30T06:41:57;7.95;;;6.15;;
53642;SDS011;39546;45.534;12.048;2023-09-30T06:47:59;6.53;;;4.80;;
53642;SDS011;39546;45.534;12.048;2023-09-30T06:54:04;10.63;;;4.80;;
53642;SDS011;39546;45.534;12.048;2023-09-30T07:00:11;7.28;;;5.70;;
53642;SDS011;39546;45.534;12.048;2023-09-30T07:06:24;11.60;;;8.25;;
53642;SDS011;39546;45.534;12.048;2023-09-30T07:12:26;19.20;;;6.82;;
53642;SDS011;39546;45.534;12.048;2023-09-30T07:18:29;7.82;;;5.80;;
53642;SDS011;39546;45.534;12.048;2023-09-30T07:24:31;10.02;;;6.50;;
53642;SDS011;39546;45.534;12.048;2023-09-30T07:30:33;8.85;;;5.65;;
53642;SDS011;39546;45.534;12.048;2023-09-30T07:36:36;7.50;;;5.07;;
53642;SDS011;39546;45.534;12.048;2023-09-30T07:42:38;7.72;;;5.57;;
53642;SDS011;39546;45.534;12.048;2023-09-30T07:48:40;7.22;;;4.60;;
53642;SDS011;39546;45.534;12.048;2023-09-30T07:54:43;5.15;;;3.47;;
53642;SDS011;39546;45.534;12.048;2023-09-30T08:00:45;4.97;;;3.83;;
53642;SDS011;39546;45.534;12.048;2023-09-30T08:06:48;7.80;;;4.10;;
53642;SDS011;39546;45.534;12.048;2023-09-30T08:12:50;7.55;;;4.12;;
53642;SDS011;39546;45.534;12.048;2023-09-30T08:18:53;6.18;;;3.90;;
53642;SDS011;39546;45.534;12.048;2023-09-30T08:24:55;4.25;;;3.37;;
53642;SDS011;39546;45.534;12.048;2023-09-30T08:31:04;4.70;;;3.25;;
53642;SDS011;39546;45.534;12.048;2023-09-30T08:37:07;8.18;;;3.12;;
53642;SDS011;39546;45.534;12.048;2023-09-30T08:43:11;6.70;;;4.32;;
53642;SDS011;39546;45.534;12.048;2023-09-30T08:49:14;4.20;;;2.65;;
53642;SDS011;39546;45.534;12.048;2023-09-30T08:55:17;7.45;;;4.78;;
53642;SDS011;39546;45.534;12.048;2023-09-30T09:01:19;6.25;;;4.65;;
53642;SDS011;39546;45.534;12.048;2023-09-30T09:07:21;7.78;;;4.72;;
53642;SDS011;39546;45.534;12.048;2023-09-30T09:13:24;7.22;;;2.95;;
53642;SDS011;39546;45.534;12.048;2023-09-30T09:19:27;5.93;;;4.10;;
53642;SDS011;39546;45.534;12.048;2023-09-30T09:25:29;8.10;;;4.25;;
53642;SDS011;39546;45.534;12.048;2023-09-30T09:31:40;6.22;;;3.78;;
53642;SDS011;39546;45.534;12.048;2023-09-30T09:37:42;6.07;;;3.75;;
53642;SDS011;39546;45.534;12.048;2023-09-30T09:43:44;6.00;;;3.87;;
53642;SDS011;39546;45.534;12.048;2023-09-30T09:49:50;6.72;;;4.37;;
53642;SDS011;39546;45.534;12.048;2023-09-30T09:55:54;11.90;;;4.55;;
53642;SDS011;39546;45.534;12.048;2023-09-30T10:01:59;4.90;;;3.37;;
53642;SDS011;39546;45.534;12.048;2023-09-30T10:08:05;5.37;;;3.87;;
53642;SDS011;39546;45.534;12.048;2023-09-30T10:14:10;11.17;;;4.37;;
53642;SDS011;39546;45.534;12.048;2023-09-30T10:20:34;7.12;;;4.25;;
53642;SDS011;39546;45.534;12.048;2023-09-30T10:26:37;7.93;;;4.25;;
53642;SDS011;39546;45.534;12.048;2023-09-30T10:38:58;7.10;;;4.75;;
53642;SDS011;39546;45.534;12.048;2023-09-30T10:45:03;6.25;;;4.25;;
53642;SDS011;39546;45.534;12.048;2023-09-30T10:51:12;8.75;;;4.57;;
53642;SDS011;39546;45.534;12.048;2023-09-30T10:57:26;7.00;;;4.45;;
53642;SDS011;39546;45.534;12.048;2023-09-30T11:03:31;5.60;;;3.65;;
53642;SDS011;39546;45.534;12.048;2023-09-30T11:09:34;7.05;;;4.07;;
53642;SDS011;39546;45.534;12.048;2023-09-30T11:15:36;6.28;;;3.83;;
53642;SDS011;39546;45.534;12.048;2023-09-30T11:21:39;10.48;;;4.18;;
53642;SDS011;39546;45.534;12.048;2023-09-30T11:27:42;6.75;;;3.47;;
53642;SDS011;39546;45.534;12.048;2023-09-30T11:33:48;6.53;;;3.83;;
53642;SDS011;39546;45.534;12.048;2023-09-30T11:39:55;6.70;;;4.35;;
53642;SDS011;39546;45.534;12.048;2023-09-30T11:46:10;4.57;;;3.33;;
53642;SDS011;39546;45.534;12.048;2023-09-30T11:52:15;6.93;;;3.95;;
53642;SDS011;39546;45.534;12.048;2023-09-30T11:58:17;7.53;;;5.28;;
53642;SDS011;39546;45.534;12.048;2023-09-30T12:04:20;6.05;;;4.03;;
53642;SDS011;39546;45.534;12.048;2023-09-30T12:10:23;6.00;;;4.32;;
53642;SDS011;39546;45.534;12.048;2023-09-30T12:16:25;10.07;;;5.35;;
53642;SDS011;39546;45.534;12.048;2023-09-30T12:22:27;6.80;;;3.62;;
53642;SDS011;39546;45.534;12.048;2023-09-30T12:28:29;9.35;;;4.07;;
53642;SDS011;39546;45.534;12.048;2023-09-30T12:34:33;8.43;;;5.25;;
53642;SDS011;39546;45.534;12.048;2023-09-30T12:40:36;6.72;;;4.12;;
53642;SDS011;39546;45.534;12.048;2023-09-30T12:46:38;8.27;;;5.00;;
53642;SDS011;39546;45.534;12.048;2023-09-30T12:52:40;7.45;;;5.10;;
53642;SDS011;39546;45.534;12.048;2023-09-30T12:58:43;6.90;;;4.37;;
53642;SDS011;39546;45.534;12.048;2023-09-30T13:04:46;5.78;;;3.78;;
53642;SDS011;39546;45.534;12.048;2023-09-30T13:10:48;13.68;;;4.55;;
53642;SDS011;39546;45.534;12.048;2023-09-30T13:16:52;5.30;;;3.50;;
53642;SDS011;39546;45.534;12.048;2023-09-30T13:22:54;8.40;;;3.83;;
53642;SDS011;39546;45.534;12.048;2023-09-30T13:28:56;5.35;;;3.78;;
53642;SDS011;39546;45.534;12.048;2023-09-30T13:34:59;7.00;;;4.03;;
53642;SDS011;39546;45.534;12.048;2023-09-30T13:41:01;5.10;;;3.42;;
53642;SDS011;39546;45.534;12.048;2023-09-30T13:47:03;5.47;;;3.03;;
53642;SDS011;39546;45.534;12.048;2023-09-30T13:53:05;8.07;;;3.95;;
53642;SDS011;39546;45.534;12.048;2023-09-30T13:59:08;5.65;;;3.62;;
53642;SDS011;39546;45.534;12.048;2023-09-30T14:05:11;5.28;;;3.47;;
53642;SDS011;39546;45.534;12.048;2023-09-30T14:11:14;5.93;;;3.10;;
53642;SDS011;39546;45.534;12.048;2023-09-30T14:17:17;5.75;;;2.92;;
53642;SDS011;39546;45.534;12.048;2023-09-30T14:23:20;8.18;;;3.85;;
53642;SDS011;39546;45.534;12.048;2023-09-30T14:29:22;7.12;;;3.90;;
53642;SDS011;39546;45.534;12.048;2023-09-30T14:35:26;8.52;;;4.45;;
53642;SDS011;39546;45.534;12.048;2023-09-30T14:41:28;8.40;;;4.28;;
53642;SDS011;39546;45.534;12.048;2023-09-30T14:47:30;9.65;;;4.22;;
53642;SDS011;39546;45.534;12.048;2023-09-30T14:53:32;6.55;;;3.78;;
53642;SDS011;39546;45.534;12.048;2023-09-30T14:59:34;4.25;;;3.55;;
53642;SDS011;39546;45.534;12.048;2023-09-30T15:05:36;7.87;;;4.45;;
53642;SDS011;39546;45.534;12.048;2023-09-30T15:11:39;5.07;;;3.58;;
53642;SDS011;39546;45.534;12.048;2023-09-30T15:17:41;5.72;;;4.30;;
53642;SDS011;39546;45.534;12.048;2023-09-30T15:23:44;6.75;;;3.75;;
53642;SDS011;39546;45.534;12.048;2023-09-30T15:29:46;8.15;;;4.57;;
53642;SDS011;39546;45.534;12.048;2023-09-30T15:35:48;6.60;;;3.92;;
53642;SDS011;39546;45.534;12.048;2023-09-30T15:41:50;4.12;;;3.20;;
53642;SDS011;39546;45.534;12.048;2023-09-30T15:47:52;6.07;;;4.05;;
53642;SDS011;39546;45.534;12.048;2023-09-30T15:53:54;7.12;;;3.78;;
53642;SDS011;39546;45.534;12.048;2023-09-30T15:59:57;8.68;;;5.05;;
53642;SDS011;39546;45.534;12.048;2023-09-30T16:05:59;7.35;;;3.70;;
53642;SDS011;39546;45.534;12.048;2023-09-30T16:12:01;10.02;;;3.90;;
53642;SDS011;39546;45.534;12.048;2023-09-30T16:18:03;8.07;;;3.75;;
53642;SDS011;39546;45.534;12.048;2023-09-30T16:24:05;8.57;;;5.45;;
53642;SDS011;39546;45.534;12.048;2023-09-30T16:30:08;10.52;;;5.10;;
53642;SDS011;39546;45.534;12.048;2023-09-30T16:36:10;6.90;;;3.95;;
53642;SDS011;39546;45.534;12.048;2023-09-30T16:42:12;6.40;;;3.83;;
53642;SDS011;39546;45.534;12.048;2023-09-30T16:48:14;9.55;;;4.45;;
53642;SDS011;39546;45.534;12.048;2023-09-30T16:54:17;5.87;;;3.22;;
53642;SDS011;39546;45.534;12.048;2023-09-30T17:00:19;16.10;;;3.97;;
53642;SDS011;39546;45.534;12.048;2023-09-30T17:06:21;5.18;;;3.55;;
53642;SDS011;39546;45.534;12.048;2023-09-30T17:12:23;9.20;;;4.78;;
53642;SDS011;39546;45.534;12.048;2023-09-30T17:18:26;8.48;;;4.35;;
53642;SDS011;39546;45.534;12.048;2023-09-30T17:24:30;6.05;;;3.50;;
53642;SDS011;39546;45.534;12.048;2023-09-30T17:30:36;12.57;;;4.22;;
53642;SDS011;39546;45.534;12.048;2023-09-30T17:36:39;5.43;;;2.58;;
53642;SDS011;39546;45.534;12.048;2023-09-30T17:42:42;5.55;;;3.33;;
53642;SDS011;39546;45.534;12.048;2023-09-30T17:48:44;5.75;;;3.83;;
53642;SDS011;39546;45.534;12.048;2023-09-30T17:54:47;7.50;;;4.53;;
53642;SDS011;39546;45.534;12.048;2023-09-30T18:00:50;6.75;;;4.00;;
53642;SDS011;39546;45.534;12.048;2023-09-30T18:06:52;9.55;;;5.05;;
53642;SDS011;39546;45.534;12.048;2023-09-30T18:12:55;4.40;;;3.10;;
53642;SDS011;39546;45.534;12.048;2023-09-30T18:18:57;7.28;;;4.15;;
53642;SDS011;39546;45.534;12.048;2023-09-30T18:24:59;7.72;;;3.90;;
53642;SDS011;39546;45.534;12.048;2023-09-30T18:31:02;6.22;;;3.60;;
53642;SDS011;39546;45.534;12.048;2023-09-30T18:37:04;7.22;;;4.78;;
53642;SDS011;39546;45.534;12.048;2023-09-30T18:43:07;6.47;;;4.40;;
53642;SDS011;39546;45.534;12.048;2023-09-30T18:49:12;5.47;;;4.07;;
53642;SDS011;39546;45.534;12.048;2023-09-30T18:55:14;7.37;;;4.75;;
53642;SDS011;39546;45.534;12.048;2023-09-30T19:01:16;8.88;;;5.43;;
53642;SDS011;39546;45.534;12.048;2023-09-30T19:07:19;5.40;;;4.12;;
53642;SDS011;39546;45.534;12.048;2023-09-30T19:13:21;16.80;;;6.72;;
53642;SDS011;39546;45.534;12.048;2023-09-30T19:19:23;8.35;;;6.47;;
53642;SDS011;39546;45.534;12.048;2023-09-30T19:25:26;12.73;;;5.87;;
53642;SDS011;39546;45.534;12.048;2023-09-30T19:31:28;11.48;;;5.07;;
53642;SDS011;39546;45.534;12.048;2023-09-30T19:37:30;7.22;;;5.25;;
53642;SDS011;39546;45.534;12.048;2023-09-30T19:43:32;10.90;;;6.68;;
53642;SDS011;39546;45.534;12.048;2023-09-30T19:49:35;7.55;;;4.90;;
53642;SDS011;39546;45.534;12.048;2023-09-30T19:55:38;10.50;;;5.37;;
53642;SDS011;39546;45.534;12.048;2023-09-30T20:01:40;6.68;;;5.25;;
53642;SDS011;39546;45.534;12.048;2023-09-30T20:07:42;9.50;;;6.43;;
53642;SDS011;39546;45.534;12.048;2023-09-30T20:13:45;10.43;;;6.90;;
53642;SDS011;39546;45.534;12.048;2023-09-30T20:19:50;16.12;;;8.43;;
53642;SDS011;39546;45.534;12.048;2023-09-30T20:25:53;18.98;;;7.50;;
53642;SDS011;39546;45.534;12.048;2023-09-30T20:31:55;9.30;;;7.70;;
53642;SDS011;39546;45.534;12.048;2023-09-30T20:37:57;9.73;;;6.72;;
53642;SDS011;39546;45.534;12.048;2023-09-30T20:44:00;10.55;;;6.97;;
53642;SDS011;39546;45.534;12.048;2023-09-30T20:50:02;8.93;;;6.47;;
53642;SDS011;39546;45.534;12.048;2023-09-30T20:56:10;9.23;;;6.80;;
53642;SDS011;39546;45.534;12.048;2023-09-30T21:02:14;11.60;;;9.18;;
53642;SDS011;39546;45.534;12.048;2023-09-30T21:08:18;12.35;;;7.72;;
53642;SDS011;39546;45.534;12.048;2023-09-30T21:14:23;11.88;;;9.40;;
53642;SDS011;39546;45.534;12.048;2023-09-30T21:20:25;10.02;;;7.50;;
53642;SDS011;39546;45.534;12.048;2023-09-30T21:26:27;17.12;;;9.80;;
53642;SDS011;39546;45.534;12.048;2023-09-30T21:32:29;9.73;;;7.62;;
53642;SDS011;39546;45.534;12.048;2023-09-30T21:38:31;9.68;;;8.40;;
53642;SDS011;39546;45.534;12.048;2023-09-30T21:44:34;11.38;;;9.55;;
53642;SDS011;39546;45.534;12.048;2023-09-30T21:50:37;11.27;;;9.43;;
53642;SDS011;39546;45.534;12.048;2023-09-30T21:56:39;11.35;;;9.35;;
53642;SDS011;39546;45.534;12.048;2023-09-30T22:02:42;16.42;;;10.63;;
53642;SDS011;39546;45.534;12.048;2023-09-30T22:08:44;9.82;;;7.37;;
53642;SDS011;39546;45.534;12.048;2023-09-30T22:14:47;11.48;;;8.07;;
53642;SDS011;39546;45.534;12.048;2023-09-30T22:20:50;11.32;;;9.15;;
53642;SDS011;39546;45.534;12.048;2023-09-30T22:26:57;9.82;;;8.18;;
53642;SDS011;39546;45.534;12.048;2023-09-30T22:32:59;14.45;;;10.00;;
53642;SDS011;39546;45.534;12.048;2023-09-30T22:39:01;15.38;;;11.02;;
53642;SDS011;39546;45.534;12.048;2023-09-30T22:45:04;11.98;;;9.75;;
53642;SDS011;39546;45.534;12.048;2023-09-30T22:51:10;14.20;;;10.10;;
53642;SDS011;39546;45.534;12.048;2023-09-30T22:57:12;11.27;;;9.38;;
53642;SDS011;39546;45.534;12.048;2023-09-30T23:03:14;13.10;;;11.07;;
53642;SDS011;39546;45.534;12.048;2023-09-30T23:09:16;15.20;;;10.90;;
53642;SDS011;39546;45.534;12.048;2023-09-30T23:15:23;13.65;;;9.85;;
53642;SDS011;39546;45.534;12.048;2023-09-30T23:21:26;13.82;;;11.95;;
53642;SDS011;39546;45.534;12.048;2023-09-30T23:27:29;15.50;;;11.43;;
53642;SDS011;39546;45.534;12.048;2023-09-30T23:33:31;17.98;;;13.18;;
53642;SDS011;39546;45.534;12.048;2023-09-30T23:39:34;15.93;;;14.27;;
53642;SDS011;39546;45.534;12.048;2023-09-30T23:45:38;15.18;;;12.35;;
53642;SDS011;39546;45.534;12.048;2023-09-30T23:51:44;15.10;;;10.45;;
53642;SDS011;39546;45.534;12.048;2023-09-30T23:57:46;15.15;;;11.85;;
